x

Southeast Hawaii - 205 Nm Southeast Of Hilo, Hi (51004) Wave Buoy

8:50am - Sun 21st Dec 2014 All times are HST. -10 hours from GMT.

  • Sig Wave height 9.5ft
  • Swell Direction
  • Peak Period 10s
  • Average Period 7s
  • Wind
    18mph, 20mph gusts
  • Sea Temp 78°f
  • Air Temp 78°f
  • Sea Pressure 1016.5mb
  • Southeast Hawaii - 205 Nm Southeast Of Hilo, Hi
  • Southeast Hawaii - 205 Nm Southeast Of Hilo, Hi

More Historic Weather Station data

Upgrade to MSW Pro to gain access to the past 30 days of data for over 8000 Wavebouys and Weather Stations around the globe.

Join Pro

Comparision Forecast

View Surf forecast
   
Sun 12/21 8:50am 9.5ft 10s 7s 18 20 mph 1016.5mb 78f 78f
7:50am 9.5ft 10s 7s 18 20 mph 1016.2mb 78f 78f
6:50am 9.5ft 10s 7s 18 22 mph 1015.8mb 78f 77f
5:50am 10ft 10s 7s 16 20 mph 1015.3mb 78f 77f
4:50am 10ft 10s 7s 18 22 mph 1014.8mb 78f 77f
3:50am 11ft 9s 8s 18 22 mph 1014.5mb 78f 77f
2:50am 10ft 9s 7s 20 25 mph 1014.4mb 78f 77f
1:50am 10ft 10s 7s 20 22 mph 1014.9mb 78f 77f
12:50am 10ft 10s 7s 20 25 mph 1015.4mb 78f 77f
Sat 12/20 11:50pm 10.5ft 9s 7s 20 25 mph 1015.7mb 78f 77f
10:50pm 12ft 10s 8s 20 25 mph 1016mb 78f 77f
9:50pm 11ft 10s 7s 20 27 mph 1015.8mb 78f 77f
8:50pm 11ft 10s 7s 22 27 mph 1015.6mb 78f 77f
7:50pm 11.5ft 10s 8s 22 25 mph 1015.2mb 78f 77f
6:50pm 11ft 10s 7s 22 25 mph 1014.6mb 78f 77f
5:50pm 12ft 9s 7s 22 25 mph 1014mb 78f 77f
4:50pm 11ft 10s 7s 20 25 mph 1013.5mb 78f 78f
3:50pm 12ft 10s 8s 20 25 mph 1013mb 78f 78f
2:50pm 11ft 10s 7s 22 25 mph 1012.7mb 78f 77f
1:50pm 11ft 9s 7s 20 25 mph 1013.3mb 78f 77f
12:50pm 10ft 10s 7s 20 25 mph 1014.3mb 78f 78f
11:50am 11ft 15s 7s 20 25 mph 1015.3mb 78f 78f
10:50am 10.5ft 9s 7s 22 27 mph 1016mb 78f 78f
9:50am 10.5ft 9s 7s 22 27 mph 1016.3mb 78f 78f
8:50am 10.5ft 10s 7s 22 27 mph 1016.3mb 78f 78f
7:50am 12ft 13s 8s 20 27 mph 1015.8mb 78f 76f
6:50am 11ft 9s 7s 22 27 mph 1014.9mb 78f 77f
5:50am 12.5ft 13s 7s 22 25 mph 1014.3mb 78f 77f
4:50am 11ft 14s 7s 22 27 mph 1013.8mb 78f 77f
3:50am 12ft 9s 7s 25 29 mph 1013.4mb 78f 77f
2:50am 12ft 9s 7s 25 29 mph 1013.5mb 78f 77f
1:50am 11ft 14s 7s 20 27 mph 1014.2mb 78f 77f
12:50am 10.5ft 9s 7s 25 29 mph 1014.8mb 78f 77f
Fri 12/19 11:50pm 11ft 9s 7s 25 29 mph 1015.3mb 78f 77f
10:50pm 11ft 9s 7s 25 31 mph 1015.7mb 78f 77f
9:50pm 11ft 8s 7s 25 29 mph 1016mb 78f 77f
8:50pm 11ft 8s 7s 22 27 mph 1016.2mb 78f 77f
7:50pm 10.5ft 8s 7s 25 31 mph 1015.8mb 78f 77f
6:50pm 10.5ft 15s 7s 27 31 mph 1015mb 78f 77f
5:50pm 11ft 15s 7s 25 31 mph 1014.4mb 78f 77f
4:50pm 10.5ft 9s 7s 25 31 mph 1014mb 78f 77f
3:50pm 10ft 8s 6s 25 29 mph 1013.9mb 78f 78f
2:50pm 10ft 8s 6s 27 34 mph 1013.7mb 78f 77f
1:50pm 10ft 9s 6s 22 27 mph 1014.7mb 78f 76f
12:50pm 9ft 8s 6s 27 34 mph 1015.4mb 78f 77f
11:50am 10ft 8s 6s 25 29 mph 1016.6mb 78f 77f
10:50am 8.5ft 8s 6s 27 36 mph 1017.2mb 78f 76f
9:50am 10ft 9s 7s 25 29 mph 1018.2mb 78f 77f
8:50am 9ft 9s 6s 22 27 mph 1018.4mb 78f 77f
7:50am 9.5ft 9s 6s 22 27 mph 1017.9mb 78f 77f
6:50am 9ft 9s 7s 25 29 mph 1017.2mb 78f 77f
5:50am 9ft 8s 6s 20 27 mph 1016.8mb 78f 74f
4:50am 8.5ft 9s 6s 20 22 mph 1016.7mb 78f 73f
3:50am 9ft 9s 6s 22 27 mph 1016.4mb 78f 75f
2:50am 9ft 9s 7s 20 27 mph 1016.6mb 78f 74f
1:50am 9ft 8s 6s 27 34 mph 1017.2mb 78f 74f
12:50am 9ft 9s 6s 22 27 mph 1017.7mb 78f 75f
Thu 12/18 11:50pm 9ft 8s 7s 20 27 mph 1017.8mb 78f 77f
10:50pm 9ft 10s 6s 20 25 mph 1017.9mb 78f 77f
9:50pm 9ft 8s 6s 25 29 mph 1017.8mb 78f 77f
8:50pm 8.5ft 8s 6s 22 25 mph 1017.9mb 78f 76f
7:50pm 9ft 8s 6s 22 27 mph 1017.5mb 78f 76f
6:50pm 8.5ft 8s 6s 18 22 mph 1017mb 78f 76f
5:50pm 8ft 8s 6s 22 27 mph 1016.1mb 78f 77f
4:50pm 8ft 8s 6s 22 29 mph 1015.6mb 78f 77f
3:50pm 8.5ft 8s 6s 22 27 mph 1015.1mb 78f 77f
2:50pm 8ft 8s 6s 22 25 mph 1015.2mb 78f 77f
1:50pm 8.5ft 8s 6s 22 27 mph 1015.8mb 78f 77f
12:50pm 8ft 9s 6s 22 25 mph 1016.7mb 78f 77f
11:50am 9ft 8s 6s 22 27 mph 1017.9mb 78f 77f
10:50am 8.5ft 8s 6s 22 27 mph 1018.8mb 78f 76f
9:50am 8ft 8s 6s 22 27 mph 1019.5mb 78f 75f
8:50am 8.5ft 8s 6s 22 25 mph 1019.6mb 78f 74f
7:50am 8ft 8s 6s 22 29 mph 1018.9mb 78f 76f
6:50am 8ft 8s 6s 20 25 mph 1018.7mb 78f 75f
5:50am 8ft 8s 6s 20 25 mph 1018.4mb 78f 76f
4:50am 8ft 8s 6s 22 25 mph 1017.8mb 78f 76f
3:50am 8.5ft 8s 6s 20 27 mph 1017.7mb 78f 76f
2:50am 8ft 8s 6s 20 22 mph 1017.8mb 78f 76f
1:50am 8ft 8s 6s 18 22 mph 1018.7mb 78f 76f
12:50am 8.5ft 8s 6s 20 25 mph 1019mb 78f 77f
Wed 12/17 11:50pm 8ft 8s 6s 22 27 mph 1018.9mb 78f 77f
10:50pm 8ft 8s 6s 22 27 mph 1018.7mb 78f 77f
9:50pm 8ft 8s 6s 22 27 mph 1019.5mb 78f 77f
8:50pm 8ft 8s 6s 22 25 mph 1019.2mb 78f 77f